sensor_id;sensor_type;location;lat;lon;timestamp;P1;durP1;ratioP1;P2;durP2;ratioP2
17955;SDS011;27666;51.498;11.966;2023-08-08T00:00:22;4.13;;;3.20;;
17955;SDS011;27666;51.498;11.966;2023-08-08T00:03:09;9.33;;;3.20;;
17955;SDS011;27666;51.498;11.966;2023-08-08T00:05:55;8.47;;;3.70;;
17955;SDS011;27666;51.498;11.966;2023-08-08T00:08:41;8.30;;;3.63;;
17955;SDS011;27666;51.498;11.966;2023-08-08T00:11:28;12.07;;;5.10;;
17955;SDS011;27666;51.498;11.966;2023-08-08T00:14:16;12.43;;;5.43;;
17955;SDS011;27666;51.498;11.966;2023-08-08T00:17:03;12.07;;;6.83;;
17955;SDS011;27666;51.498;11.966;2023-08-08T00:19:50;14.40;;;6.93;;
17955;SDS011;27666;51.498;11.966;2023-08-08T00:22:37;16.53;;;6.60;;
17955;SDS011;27666;51.498;11.966;2023-08-08T00:25:23;14.13;;;7.07;;
17955;SDS011;27666;51.498;11.966;2023-08-08T00:28:12;16.50;;;6.97;;
17955;SDS011;27666;51.498;11.966;2023-08-08T00:30:59;15.90;;;7.37;;
17955;SDS011;27666;51.498;11.966;2023-08-08T00:33:46;15.50;;;7.30;;
17955;SDS011;27666;51.498;11.966;2023-08-08T00:36:35;12.90;;;7.60;;
17955;SDS011;27666;51.498;11.966;2023-08-08T00:39:22;10.83;;;6.10;;
17955;SDS011;27666;51.498;11.966;2023-08-08T00:42:09;12.03;;;5.37;;
17955;SDS011;27666;51.498;11.966;2023-08-08T00:44:55;9.93;;;3.97;;
17955;SDS011;27666;51.498;11.966;2023-08-08T00:47:46;9.77;;;4.00;;
17955;SDS011;27666;51.498;11.966;2023-08-08T00:50:34;7.77;;;3.67;;
17955;SDS011;27666;51.498;11.966;2023-08-08T00:53:22;11.20;;;3.70;;
17955;SDS011;27666;51.498;11.966;2023-08-08T00:56:11;7.07;;;3.73;;
17955;SDS011;27666;51.498;11.966;2023-08-08T00:58:58;5.60;;;3.23;;
17955;SDS011;27666;51.498;11.966;2023-08-08T01:01:45;5.60;;;3.17;;
17955;SDS011;27666;51.498;11.966;2023-08-08T01:04:32;7.80;;;3.20;;
17955;SDS011;27666;51.498;11.966;2023-08-08T01:07:22;6.77;;;3.10;;
17955;SDS011;27666;51.498;11.966;2023-08-08T01:10:17;4.57;;;2.63;;
17955;SDS011;27666;51.498;11.966;2023-08-08T01:13:10;7.13;;;3.20;;
17955;SDS011;27666;51.498;11.966;2023-08-08T01:16:01;3.77;;;2.83;;
17955;SDS011;27666;51.498;11.966;2023-08-08T01:18:50;7.37;;;3.33;;
17955;SDS011;27666;51.498;11.966;2023-08-08T01:21:36;5.87;;;3.20;;
17955;SDS011;27666;51.498;11.966;2023-08-08T01:24:27;7.63;;;3.37;;
17955;SDS011;27666;51.498;11.966;2023-08-08T01:27:14;5.27;;;3.27;;
17955;SDS011;27666;51.498;11.966;2023-08-08T01:30:02;6.97;;;3.87;;
17955;SDS011;27666;51.498;11.966;2023-08-08T01:32:49;4.57;;;2.90;;
17955;SDS011;27666;51.498;11.966;2023-08-08T01:35:37;5.17;;;3.30;;
17955;SDS011;27666;51.498;11.966;2023-08-08T01:38:26;6.63;;;3.37;;
17955;SDS011;27666;51.498;11.966;2023-08-08T01:41:18;5.43;;;3.47;;
17955;SDS011;27666;51.498;11.966;2023-08-08T01:44:06;4.53;;;2.63;;
17955;SDS011;27666;51.498;11.966;2023-08-08T01:46:53;4.53;;;2.77;;
17955;SDS011;27666;51.498;11.966;2023-08-08T01:49:40;4.53;;;4.10;;
17955;SDS011;27666;51.498;11.966;2023-08-08T01:52:26;6.27;;;3.37;;
17955;SDS011;27666;51.498;11.966;2023-08-08T01:55:12;11.30;;;4.00;;
17955;SDS011;27666;51.498;11.966;2023-08-08T01:58:00;4.37;;;2.93;;
17955;SDS011;27666;51.498;11.966;2023-08-08T02:00:47;5.40;;;2.87;;
17955;SDS011;27666;51.498;11.966;2023-08-08T02:03:34;4.90;;;3.40;;
17955;SDS011;27666;51.498;11.966;2023-08-08T02:06:20;4.07;;;2.67;;
17955;SDS011;27666;51.498;11.966;2023-08-08T02:09:07;11.97;;;3.40;;
17955;SDS011;27666;51.498;11.966;2023-08-08T02:11:53;4.70;;;3.37;;
17955;SDS011;27666;51.498;11.966;2023-08-08T02:14:42;4.30;;;2.90;;
17955;SDS011;27666;51.498;11.966;2023-08-08T02:17:29;5.00;;;2.53;;
17955;SDS011;27666;51.498;11.966;2023-08-08T02:20:15;4.77;;;2.83;;
17955;SDS011;27666;51.498;11.966;2023-08-08T02:23:03;4.30;;;2.63;;
17955;SDS011;27666;51.498;11.966;2023-08-08T02:25:49;3.93;;;2.83;;
17955;SDS011;27666;51.498;11.966;2023-08-08T02:28:36;5.17;;;2.90;;
17955;SDS011;27666;51.498;11.966;2023-08-08T02:31:24;7.67;;;2.77;;
17955;SDS011;27666;51.498;11.966;2023-08-08T02:34:10;4.87;;;2.93;;
17955;SDS011;27666;51.498;11.966;2023-08-08T02:36:57;4.47;;;2.70;;
17955;SDS011;27666;51.498;11.966;2023-08-08T02:39:43;4.50;;;2.70;;
17955;SDS011;27666;51.498;11.966;2023-08-08T02:42:30;4.67;;;2.50;;
17955;SDS011;27666;51.498;11.966;2023-08-08T02:45:17;4.90;;;2.70;;
17955;SDS011;27666;51.498;11.966;2023-08-08T02:48:09;5.97;;;2.80;;
17955;SDS011;27666;51.498;11.966;2023-08-08T02:50:56;7.07;;;2.83;;
17955;SDS011;27666;51.498;11.966;2023-08-08T02:53:42;4.93;;;2.70;;
17955;SDS011;27666;51.498;11.966;2023-08-08T02:56:28;5.83;;;2.67;;
17955;SDS011;27666;51.498;11.966;2023-08-08T02:59:15;4.83;;;2.53;;
17955;SDS011;27666;51.498;11.966;2023-08-08T03:02:02;3.30;;;2.77;;
17955;SDS011;27666;51.498;11.966;2023-08-08T03:04:50;3.60;;;2.77;;
17955;SDS011;27666;51.498;11.966;2023-08-08T03:07:36;3.17;;;2.67;;
17955;SDS011;27666;51.498;11.966;2023-08-08T03:10:25;6.83;;;2.83;;
17955;SDS011;27666;51.498;11.966;2023-08-08T03:13:13;3.33;;;2.63;;
17955;SDS011;27666;51.498;11.966;2023-08-08T03:16:00;3.33;;;2.70;;
17955;SDS011;27666;51.498;11.966;2023-08-08T03:18:46;3.63;;;2.47;;
17955;SDS011;27666;51.498;11.966;2023-08-08T03:21:34;5.17;;;2.50;;
17955;SDS011;27666;51.498;11.966;2023-08-08T03:24:20;3.47;;;2.80;;
17955;SDS011;27666;51.498;11.966;2023-08-08T03:27:07;7.47;;;2.93;;
17955;SDS011;27666;51.498;11.966;2023-08-08T03:29:54;3.37;;;2.53;;
17955;SDS011;27666;51.498;11.966;2023-08-08T03:32:41;3.30;;;3.00;;
17955;SDS011;27666;51.498;11.966;2023-08-08T03:35:27;3.87;;;2.80;;
17955;SDS011;27666;51.498;11.966;2023-08-08T03:38:15;5.50;;;3.00;;
17955;SDS011;27666;51.498;11.966;2023-08-08T03:41:01;5.97;;;2.40;;
17955;SDS011;27666;51.498;11.966;2023-08-08T03:43:48;6.17;;;2.73;;
17955;SDS011;27666;51.498;11.966;2023-08-08T03:46:34;6.50;;;2.60;;
17955;SDS011;27666;51.498;11.966;2023-08-08T03:49:21;4.30;;;2.97;;
17955;SDS011;27666;51.498;11.966;2023-08-08T03:52:07;5.20;;;2.60;;
17955;SDS011;27666;51.498;11.966;2023-08-08T03:54:55;4.53;;;2.87;;
17955;SDS011;27666;51.498;11.966;2023-08-08T03:57:41;3.23;;;2.70;;
17955;SDS011;27666;51.498;11.966;2023-08-08T04:00:28;5.43;;;3.07;;
17955;SDS011;27666;51.498;11.966;2023-08-08T04:03:15;5.37;;;2.90;;
17955;SDS011;27666;51.498;11.966;2023-08-08T04:06:03;3.97;;;2.60;;
17955;SDS011;27666;51.498;11.966;2023-08-08T04:08:49;3.97;;;2.83;;
17955;SDS011;27666;51.498;11.966;2023-08-08T04:11:37;5.70;;;3.17;;
17955;SDS011;27666;51.498;11.966;2023-08-08T04:14:24;10.10;;;3.13;;
17955;SDS011;27666;51.498;11.966;2023-08-08T04:17:10;3.93;;;2.83;;
17955;SDS011;27666;51.498;11.966;2023-08-08T04:19:57;5.10;;;2.80;;
17955;SDS011;27666;51.498;11.966;2023-08-08T04:22:43;3.67;;;2.50;;
17955;SDS011;27666;51.498;11.966;2023-08-08T04:25:30;5.70;;;2.97;;
17955;SDS011;27666;51.498;11.966;2023-08-08T04:28:18;5.70;;;2.67;;
17955;SDS011;27666;51.498;11.966;2023-08-08T04:31:04;4.43;;;2.80;;
17955;SDS011;27666;51.498;11.966;2023-08-08T04:33:50;3.43;;;2.53;;
17955;SDS011;27666;51.498;11.966;2023-08-08T04:36:41;4.03;;;2.50;;
17955;SDS011;27666;51.498;11.966;2023-08-08T04:39:28;5.17;;;2.87;;
17955;SDS011;27666;51.498;11.966;2023-08-08T04:42:14;6.13;;;3.10;;
17955;SDS011;27666;51.498;11.966;2023-08-08T04:45:02;6.60;;;3.03;;
17955;SDS011;27666;51.498;11.966;2023-08-08T04:47:50;3.17;;;2.83;;
17955;SDS011;27666;51.498;11.966;2023-08-08T04:50:36;8.07;;;3.10;;
17955;SDS011;27666;51.498;11.966;2023-08-08T04:53:24;5.37;;;2.80;;
17955;SDS011;27666;51.498;11.966;2023-08-08T04:56:10;3.73;;;2.77;;
17955;SDS011;27666;51.498;11.966;2023-08-08T04:58:59;7.20;;;2.90;;
17955;SDS011;27666;51.498;11.966;2023-08-08T05:01:46;5.82;;;3.00;;
17955;SDS011;27666;51.498;11.966;2023-08-08T05:04:33;6.60;;;2.70;;
17955;SDS011;27666;51.498;11.966;2023-08-08T05:07:19;4.00;;;2.60;;
17955;SDS011;27666;51.498;11.966;2023-08-08T05:10:06;8.07;;;2.83;;
17955;SDS011;27666;51.498;11.966;2023-08-08T05:12:55;4.17;;;2.60;;
17955;SDS011;27666;51.498;11.966;2023-08-08T05:15:41;3.03;;;2.33;;
17955;SDS011;27666;51.498;11.966;2023-08-08T05:18:29;3.30;;;2.63;;
17955;SDS011;27666;51.498;11.966;2023-08-08T05:21:15;21.77;;;6.30;;
17955;SDS011;27666;51.498;11.966;2023-08-08T05:24:02;4.50;;;2.97;;
17955;SDS011;27666;51.498;11.966;2023-08-08T05:26:49;4.03;;;2.47;;
17955;SDS011;27666;51.498;11.966;2023-08-08T05:29:35;3.65;;;3.05;;
17955;SDS011;27666;51.498;11.966;2023-08-08T05:32:23;4.53;;;2.93;;
17955;SDS011;27666;51.498;11.966;2023-08-08T05:35:11;4.18;;;2.92;;
17955;SDS011;27666;51.498;11.966;2023-08-08T05:37:57;5.10;;;2.78;;
17955;SDS011;27666;51.498;11.966;2023-08-08T05:40:44;3.92;;;2.70;;
17955;SDS011;27666;51.498;11.966;2023-08-08T05:43:30;3.00;;;2.70;;
17955;SDS011;27666;51.498;11.966;2023-08-08T05:46:17;2.90;;;2.60;;
17955;SDS011;27666;51.498;11.966;2023-08-08T05:49:04;2.83;;;2.53;;
17955;SDS011;27666;51.498;11.966;2023-08-08T05:51:55;4.20;;;2.60;;
17955;SDS011;27666;51.498;11.966;2023-08-08T05:54:42;4.20;;;2.55;;
17955;SDS011;27666;51.498;11.966;2023-08-08T05:57:28;5.57;;;2.70;;
17955;SDS011;27666;51.498;11.966;2023-08-08T06:00:15;4.53;;;2.60;;
17955;SDS011;27666;51.498;11.966;2023-08-08T06:03:02;4.88;;;2.30;;
17955;SDS011;27666;51.498;11.966;2023-08-08T06:05:49;2.88;;;2.47;;
17955;SDS011;27666;51.498;11.966;2023-08-08T06:08:37;6.28;;;2.30;;
17955;SDS011;27666;51.498;11.966;2023-08-08T06:11:24;2.42;;;2.08;;
17955;SDS011;27666;51.498;11.966;2023-08-08T06:14:10;3.78;;;2.42;;
17955;SDS011;27666;51.498;11.966;2023-08-08T06:16:58;4.60;;;2.33;;
17955;SDS011;27666;51.498;11.966;2023-08-08T06:19:46;3.97;;;2.30;;
17955;SDS011;27666;51.498;11.966;2023-08-08T06:22:32;4.18;;;2.05;;
17955;SDS011;27666;51.498;11.966;2023-08-08T06:25:20;2.20;;;2.00;;
17955;SDS011;27666;51.498;11.966;2023-08-08T06:28:06;3.25;;;1.92;;
17955;SDS011;27666;51.498;11.966;2023-08-08T06:30:53;5.10;;;2.10;;
17955;SDS011;27666;51.498;11.966;2023-08-08T06:33:39;2.53;;;2.03;;
17955;SDS011;27666;51.498;11.966;2023-08-08T06:36:26;5.53;;;2.30;;
17955;SDS011;27666;51.498;11.966;2023-08-08T06:39:12;3.33;;;2.70;;
17955;SDS011;27666;51.498;11.966;2023-08-08T06:42:01;4.32;;;2.30;;
17955;SDS011;27666;51.498;11.966;2023-08-08T06:44:48;4.45;;;2.35;;
17955;SDS011;27666;51.498;11.966;2023-08-08T06:47:35;3.13;;;2.30;;
17955;SDS011;27666;51.498;11.966;2023-08-08T06:50:22;5.88;;;2.20;;
17955;SDS011;27666;51.498;11.966;2023-08-08T06:53:09;2.47;;;1.85;;
17955;SDS011;27666;51.498;11.966;2023-08-08T06:55:55;2.63;;;2.00;;
17955;SDS011;27666;51.498;11.966;2023-08-08T06:58:43;2.30;;;2.10;;
17955;SDS011;27666;51.498;11.966;2023-08-08T07:01:30;2.97;;;1.90;;
17955;SDS011;27666;51.498;11.966;2023-08-08T07:04:19;2.42;;;1.88;;
17955;SDS011;27666;51.498;11.966;2023-08-08T07:07:07;3.53;;;2.15;;
17955;SDS011;27666;51.498;11.966;2023-08-08T07:09:53;3.50;;;2.65;;
17955;SDS011;27666;51.498;11.966;2023-08-08T07:12:40;3.10;;;2.47;;
17955;SDS011;27666;51.498;11.966;2023-08-08T07:15:28;6.00;;;2.60;;
17955;SDS011;27666;51.498;11.966;2023-08-08T07:18:15;9.70;;;5.93;;
17955;SDS011;27666;51.498;11.966;2023-08-08T07:21:02;2.92;;;2.38;;
17955;SDS011;27666;51.498;11.966;2023-08-08T07:23:48;2.30;;;2.10;;
17955;SDS011;27666;51.498;11.966;2023-08-08T07:26:35;8.75;;;2.65;;
17955;SDS011;27666;51.498;11.966;2023-08-08T07:29:21;2.50;;;2.30;;
17955;SDS011;27666;51.498;11.966;2023-08-08T07:32:09;2.58;;;2.38;;
17955;SDS011;27666;51.498;11.966;2023-08-08T07:34:56;7.60;;;3.28;;
17955;SDS011;27666;51.498;11.966;2023-08-08T07:37:42;4.57;;;2.45;;
17955;SDS011;27666;51.498;11.966;2023-08-08T07:40:29;2.55;;;2.35;;
17955;SDS011;27666;51.498;11.966;2023-08-08T07:43:15;3.85;;;2.50;;
17955;SDS011;27666;51.498;11.966;2023-08-08T07:46:02;5.57;;;2.65;;
17955;SDS011;27666;51.498;11.966;2023-08-08T07:48:50;4.57;;;2.80;;
17955;SDS011;27666;51.498;11.966;2023-08-08T07:51:36;7.88;;;2.97;;
17955;SDS011;27666;51.498;11.966;2023-08-08T07:54:23;4.15;;;2.50;;
17955;SDS011;27666;51.498;11.966;2023-08-08T07:57:09;3.22;;;2.90;;
17955;SDS011;27666;51.498;11.966;2023-08-08T07:59:57;4.18;;;2.30;;
17955;SDS011;27666;51.498;11.966;2023-08-08T08:02:43;2.85;;;2.33;;
17955;SDS011;27666;51.498;11.966;2023-08-08T08:05:33;2.47;;;2.28;;
17955;SDS011;27666;51.498;11.966;2023-08-08T08:08:19;4.57;;;2.10;;
17955;SDS011;27666;51.498;11.966;2023-08-08T08:11:06;4.90;;;2.25;;
17955;SDS011;27666;51.498;11.966;2023-08-08T08:13:53;3.35;;;2.47;;
17955;SDS011;27666;51.498;11.966;2023-08-08T08:16:40;4.35;;;2.53;;
17955;SDS011;27666;51.498;11.966;2023-08-08T08:19:26;5.53;;;2.72;;
17955;SDS011;27666;51.498;11.966;2023-08-08T08:22:14;7.38;;;2.65;;
17955;SDS011;27666;51.498;11.966;2023-08-08T08:25:00;5.45;;;2.75;;
17955;SDS011;27666;51.498;11.966;2023-08-08T08:27:47;2.53;;;2.33;;
17955;SDS011;27666;51.498;11.966;2023-08-08T08:30:33;4.20;;;3.05;;
17955;SDS011;27666;51.498;11.966;2023-08-08T08:33:21;4.25;;;2.92;;
17955;SDS011;27666;51.498;11.966;2023-08-08T08:36:10;2.80;;;2.50;;
17955;SDS011;27666;51.498;11.966;2023-08-08T08:38:59;3.78;;;2.17;;
17955;SDS011;27666;51.498;11.966;2023-08-08T08:41:46;3.78;;;2.55;;
17955;SDS011;27666;51.498;11.966;2023-08-08T08:44:35;8.32;;;2.90;;
17955;SDS011;27666;51.498;11.966;2023-08-08T08:47:22;6.68;;;2.83;;
17955;SDS011;27666;51.498;11.966;2023-08-08T08:50:10;5.10;;;2.50;;
17955;SDS011;27666;51.498;11.966;2023-08-08T08:52:57;3.08;;;2.50;;
17955;SDS011;27666;51.498;11.966;2023-08-08T08:55:46;3.50;;;2.40;;
17955;SDS011;27666;51.498;11.966;2023-08-08T08:58:34;4.68;;;2.60;;
17955;SDS011;27666;51.498;11.966;2023-08-08T09:01:20;2.40;;;2.20;;
17955;SDS011;27666;51.498;11.966;2023-08-08T09:04:09;2.72;;;2.40;;
17955;SDS011;27666;51.498;11.966;2023-08-08T09:06:56;2.70;;;2.50;;
17955;SDS011;27666;51.498;11.966;2023-08-08T09:09:43;5.20;;;2.50;;
17955;SDS011;27666;51.498;11.966;2023-08-08T09:12:31;3.13;;;2.40;;
17955;SDS011;27666;51.498;11.966;2023-08-08T09:15:19;4.03;;;2.47;;
17955;SDS011;27666;51.498;11.966;2023-08-08T09:18:06;5.28;;;2.58;;
17955;SDS011;27666;51.498;11.966;2023-08-08T09:20:53;3.88;;;2.20;;
17955;SDS011;27666;51.498;11.966;2023-08-08T09:23:40;3.40;;;2.30;;
17955;SDS011;27666;51.498;11.966;2023-08-08T09:26:30;5.55;;;3.67;;
17955;SDS011;27666;51.498;11.966;2023-08-08T09:29:18;6.00;;;3.72;;
17955;SDS011;27666;51.498;11.966;2023-08-08T09:32:05;4.03;;;2.17;;
17955;SDS011;27666;51.498;11.966;2023-08-08T09:34:55;4.47;;;2.25;;
17955;SDS011;27666;51.498;11.966;2023-08-08T09:37:42;4.30;;;2.53;;
17955;SDS011;27666;51.498;11.966;2023-08-08T09:40:29;3.42;;;2.28;;
17955;SDS011;27666;51.498;11.966;2023-08-08T09:43:16;4.03;;;2.83;;
17955;SDS011;27666;51.498;11.966;2023-08-08T09:46:04;4.00;;;2.50;;
17955;SDS011;27666;51.498;11.966;2023-08-08T09:48:51;2.40;;;2.10;;
17955;SDS011;27666;51.498;11.966;2023-08-08T09:51:38;2.97;;;2.40;;
17955;SDS011;27666;51.498;11.966;2023-08-08T09:54:25;4.53;;;2.38;;
17955;SDS011;27666;51.498;11.966;2023-08-08T09:57:13;3.35;;;2.60;;
17955;SDS011;27666;51.498;11.966;2023-08-08T09:59:59;2.88;;;2.20;;
17955;SDS011;27666;51.498;11.966;2023-08-08T10:02:56;2.95;;;2.38;;
17955;SDS011;27666;51.498;11.966;2023-08-08T10:05:45;3.50;;;2.50;;
17955;SDS011;27666;51.498;11.966;2023-08-08T10:08:32;5.65;;;2.70;;
17955;SDS011;27666;51.498;11.966;2023-08-08T10:11:19;5.72;;;2.45;;
17955;SDS011;27666;51.498;11.966;2023-08-08T10:14:08;2.75;;;2.13;;
17955;SDS011;27666;51.498;11.966;2023-08-08T10:16:56;5.05;;;2.63;;
17955;SDS011;27666;51.498;11.966;2023-08-08T10:19:51;8.82;;;5.25;;
17955;SDS011;27666;51.498;11.966;2023-08-08T10:22:42;71.70;;;35.13;;
17955;SDS011;27666;51.498;11.966;2023-08-08T10:25:30;58.78;;;25.90;;
17955;SDS011;27666;51.498;11.966;2023-08-08T10:28:17;53.85;;;20.75;;
17955;SDS011;27666;51.498;11.966;2023-08-08T10:31:15;41.00;;;18.80;;
17955;SDS011;27666;51.498;11.966;2023-08-08T10:34:05;14.50;;;7.93;;
17955;SDS011;27666;51.498;11.966;2023-08-08T10:36:54;19.35;;;8.68;;
17955;SDS011;27666;51.498;11.966;2023-08-08T10:39:52;8.57;;;5.32;;
17955;SDS011;27666;51.498;11.966;2023-08-08T10:42:40;7.80;;;4.47;;
17955;SDS011;27666;51.498;11.966;2023-08-08T10:45:29;8.15;;;4.85;;
17955;SDS011;27666;51.498;11.966;2023-08-08T10:48:16;5.05;;;3.38;;
17955;SDS011;27666;51.498;11.966;2023-08-08T10:51:05;6.93;;;3.22;;
17955;SDS011;27666;51.498;11.966;2023-08-08T10:53:53;5.88;;;3.38;;
17955;SDS011;27666;51.498;11.966;2023-08-08T10:56:41;3.63;;;2.38;;
17955;SDS011;27666;51.498;11.966;2023-08-08T10:59:36;9.60;;;4.65;;
17955;SDS011;27666;51.498;11.966;2023-08-08T11:02:23;7.13;;;3.42;;
17955;SDS011;27666;51.498;11.966;2023-08-08T11:05:10;2.75;;;2.30;;
17955;SDS011;27666;51.498;11.966;2023-08-08T11:07:57;4.88;;;2.97;;
17955;SDS011;27666;51.498;11.966;2023-08-08T11:10:50;5.00;;;3.45;;
17955;SDS011;27666;51.498;11.966;2023-08-08T11:13:38;4.88;;;2.92;;
17955;SDS011;27666;51.498;11.966;2023-08-08T11:16:26;5.20;;;3.05;;
17955;SDS011;27666;51.498;11.966;2023-08-08T11:19:13;9.32;;;2.80;;
17955;SDS011;27666;51.498;11.966;2023-08-08T11:22:00;4.07;;;2.63;;
17955;SDS011;27666;51.498;11.966;2023-08-08T11:24:56;5.30;;;3.15;;
17955;SDS011;27666;51.498;11.966;2023-08-08T11:27:50;5.47;;;2.60;;
17955;SDS011;27666;51.498;11.966;2023-08-08T11:30:39;3.15;;;2.72;;
17955;SDS011;27666;51.498;11.966;2023-08-08T11:33:28;4.32;;;2.70;;
17955;SDS011;27666;51.498;11.966;2023-08-08T11:36:14;4.18;;;3.30;;
17955;SDS011;27666;51.498;11.966;2023-08-08T11:39:02;5.13;;;3.08;;
17955;SDS011;27666;51.498;11.966;2023-08-08T11:41:52;6.07;;;3.00;;
17955;SDS011;27666;51.498;11.966;2023-08-08T11:44:44;5.60;;;4.20;;
17955;SDS011;27666;51.498;11.966;2023-08-08T11:47:30;5.32;;;3.03;;
17955;SDS011;27666;51.498;11.966;2023-08-08T11:50:22;3.65;;;2.70;;
17955;SDS011;27666;51.498;11.966;2023-08-08T11:53:09;3.67;;;2.60;;
17955;SDS011;27666;51.498;11.966;2023-08-08T11:55:57;11.13;;;3.42;;
17955;SDS011;27666;51.498;11.966;2023-08-08T11:58:44;4.95;;;3.00;;
17955;SDS011;27666;51.498;11.966;2023-08-08T12:01:32;4.65;;;2.78;;
17955;SDS011;27666;51.498;11.966;2023-08-08T12:04:20;3.75;;;2.95;;
17955;SDS011;27666;51.498;11.966;2023-08-08T12:07:09;3.80;;;3.00;;
17955;SDS011;27666;51.498;11.966;2023-08-08T12:09:56;4.05;;;3.00;;
17955;SDS011;27666;51.498;11.966;2023-08-08T12:12:43;10.88;;;3.28;;
17955;SDS011;27666;51.498;11.966;2023-08-08T12:15:30;5.60;;;2.63;;
17955;SDS011;27666;51.498;11.966;2023-08-08T12:18:20;3.85;;;3.08;;
17955;SDS011;27666;51.498;11.966;2023-08-08T12:21:06;5.72;;;3.13;;
17955;SDS011;27666;51.498;11.966;2023-08-08T12:23:54;3.25;;;2.95;;
17955;SDS011;27666;51.498;11.966;2023-08-08T12:26:41;3.13;;;2.80;;
17955;SDS011;27666;51.498;11.966;2023-08-08T12:29:28;4.40;;;2.72;;
17955;SDS011;27666;51.498;11.966;2023-08-08T12:32:16;5.10;;;2.80;;
17955;SDS011;27666;51.498;11.966;2023-08-08T12:35:04;4.55;;;3.05;;
17955;SDS011;27666;51.498;11.966;2023-08-08T12:37:51;4.80;;;3.00;;
17955;SDS011;27666;51.498;11.966;2023-08-08T12:40:38;4.18;;;3.03;;
17955;SDS011;27666;51.498;11.966;2023-08-08T12:43:24;5.30;;;3.45;;
17955;SDS011;27666;51.498;11.966;2023-08-08T12:46:11;4.50;;;3.08;;
17955;SDS011;27666;51.498;11.966;2023-08-08T12:48:57;5.22;;;3.22;;
17955;SDS011;27666;51.498;11.966;2023-08-08T12:51:45;3.35;;;2.88;;
17955;SDS011;27666;51.498;11.966;2023-08-08T12:54:32;4.88;;;3.08;;
17955;SDS011;27666;51.498;11.966;2023-08-08T12:57:20;2.92;;;2.60;;
17955;SDS011;27666;51.498;11.966;2023-08-08T13:00:07;5.40;;;3.20;;
17955;SDS011;27666;51.498;11.966;2023-08-08T13:02:54;3.50;;;3.10;;
17955;SDS011;27666;51.498;11.966;2023-08-08T13:05:41;5.03;;;3.15;;
17955;SDS011;27666;51.498;11.966;2023-08-08T13:08:29;4.05;;;3.25;;
17955;SDS011;27666;51.498;11.966;2023-08-08T13:11:17;4.35;;;3.70;;
17955;SDS011;27666;51.498;11.966;2023-08-08T13:14:03;4.13;;;2.97;;
17955;SDS011;27666;51.498;11.966;2023-08-08T13:16:51;2.88;;;2.60;;
17955;SDS011;27666;51.498;11.966;2023-08-08T13:19:38;4.53;;;3.35;;
17955;SDS011;27666;51.498;11.966;2023-08-08T13:22:25;3.58;;;2.78;;
17955;SDS011;27666;51.498;11.966;2023-08-08T13:25:13;4.47;;;3.17;;
17955;SDS011;27666;51.498;11.966;2023-08-08T13:28:00;3.25;;;2.92;;
17955;SDS011;27666;51.498;11.966;2023-08-08T13:30:47;6.22;;;3.35;;
17955;SDS011;27666;51.498;11.966;2023-08-08T13:33:34;4.20;;;3.00;;
17955;SDS011;27666;51.498;11.966;2023-08-08T13:36:21;3.22;;;2.90;;
17955;SDS011;27666;51.498;11.966;2023-08-08T13:39:07;3.33;;;3.03;;
17955;SDS011;27666;51.498;11.966;2023-08-08T13:41:56;9.68;;;5.35;;
17955;SDS011;27666;51.498;11.966;2023-08-08T13:44:43;7.95;;;4.78;;
17955;SDS011;27666;51.498;11.966;2023-08-08T13:47:29;6.50;;;3.28;;
17955;SDS011;27666;51.498;11.966;2023-08-08T13:50:16;5.20;;;3.33;;
17955;SDS011;27666;51.498;11.966;2023-08-08T13:53:03;3.95;;;3.40;;
17955;SDS011;27666;51.498;11.966;2023-08-08T13:55:49;3.17;;;2.90;;
17955;SDS011;27666;51.498;11.966;2023-08-08T13:58:37;4.18;;;3.70;;
17955;SDS011;27666;51.498;11.966;2023-08-08T14:01:23;4.40;;;3.10;;
17955;SDS011;27666;51.498;11.966;2023-08-08T14:04:10;5.47;;;3.42;;
17955;SDS011;27666;51.498;11.966;2023-08-08T14:06:56;7.07;;;3.53;;
17955;SDS011;27666;51.498;11.966;2023-08-08T14:09:43;11.23;;;3.72;;
17955;SDS011;27666;51.498;11.966;2023-08-08T14:12:32;3.50;;;3.20;;
17955;SDS011;27666;51.498;11.966;2023-08-08T14:15:20;3.65;;;3.10;;
17955;SDS011;27666;51.498;11.966;2023-08-08T14:18:07;4.00;;;3.08;;
17955;SDS011;27666;51.498;11.966;2023-08-08T14:20:54;4.82;;;3.70;;
17955;SDS011;27666;51.498;11.966;2023-08-08T14:23:40;4.30;;;3.30;;
17955;SDS011;27666;51.498;11.966;2023-08-08T14:26:27;3.42;;;3.13;;
17955;SDS011;27666;51.498;11.966;2023-08-08T14:29:13;3.55;;;2.83;;
17955;SDS011;27666;51.498;11.966;2023-08-08T14:32:03;4.95;;;3.08;;
17955;SDS011;27666;51.498;11.966;2023-08-08T14:34:50;4.82;;;3.60;;
17955;SDS011;27666;51.498;11.966;2023-08-08T14:37:38;6.07;;;3.17;;
17955;SDS011;27666;51.498;11.966;2023-08-08T14:40:25;5.10;;;3.28;;
17955;SDS011;27666;51.498;11.966;2023-08-08T14:43:11;5.15;;;2.97;;
17955;SDS011;27666;51.498;11.966;2023-08-08T14:45:58;3.35;;;3.05;;
17955;SDS011;27666;51.498;11.966;2023-08-08T14:48:48;3.95;;;3.30;;
17955;SDS011;27666;51.498;11.966;2023-08-08T14:51:35;5.25;;;3.35;;
17955;SDS011;27666;51.498;11.966;2023-08-08T14:54:22;6.28;;;3.53;;
17955;SDS011;27666;51.498;11.966;2023-08-08T14:57:08;5.38;;;2.97;;
17955;SDS011;27666;51.498;11.966;2023-08-08T14:59:57;3.67;;;3.17;;
17955;SDS011;27666;51.498;11.966;2023-08-08T15:02:44;3.60;;;2.85;;
17955;SDS011;27666;51.498;11.966;2023-08-08T15:05:32;3.45;;;3.15;;
17955;SDS011;27666;51.498;11.966;2023-08-08T15:08:18;6.15;;;4.85;;
17955;SDS011;27666;51.498;11.966;2023-08-08T15:11:06;3.63;;;3.33;;
17955;SDS011;27666;51.498;11.966;2023-08-08T15:13:53;4.85;;;3.65;;
17955;SDS011;27666;51.498;11.966;2023-08-08T15:16:39;5.20;;;3.15;;
17955;SDS011;27666;51.498;11.966;2023-08-08T15:19:26;4.18;;;2.78;;
17955;SDS011;27666;51.498;11.966;2023-08-08T15:22:14;3.90;;;2.75;;
17955;SDS011;27666;51.498;11.966;2023-08-08T15:25:00;3.78;;;2.70;;
17955;SDS011;27666;51.498;11.966;2023-08-08T15:27:47;3.25;;;2.75;;
17955;SDS011;27666;51.498;11.966;2023-08-08T15:30:34;3.33;;;2.60;;
17955;SDS011;27666;51.498;11.966;2023-08-08T15:33:20;4.43;;;2.72;;
17955;SDS011;27666;51.498;11.966;2023-08-08T15:36:07;3.17;;;2.63;;
17955;SDS011;27666;51.498;11.966;2023-08-08T15:38:55;2.70;;;2.50;;
17955;SDS011;27666;51.498;11.966;2023-08-08T15:41:41;4.82;;;3.10;;
17955;SDS011;27666;51.498;11.966;2023-08-08T15:44:28;5.78;;;4.00;;
17955;SDS011;27666;51.498;11.966;2023-08-08T15:47:15;3.20;;;2.28;;
17955;SDS011;27666;51.498;11.966;2023-08-08T15:50:01;3.63;;;2.80;;
17955;SDS011;27666;51.498;11.966;2023-08-08T15:52:48;4.95;;;2.38;;
17955;SDS011;27666;51.498;11.966;2023-08-08T15:55:39;4.43;;;2.67;;
17955;SDS011;27666;51.498;11.966;2023-08-08T15:58:26;6.18;;;2.88;;
17955;SDS011;27666;51.498;11.966;2023-08-08T16:01:12;2.85;;;2.58;;
17955;SDS011;27666;51.498;11.966;2023-08-08T16:03:59;3.53;;;2.33;;
17955;SDS011;27666;51.498;11.966;2023-08-08T16:06:46;5.80;;;2.63;;
17955;SDS011;27666;51.498;11.966;2023-08-08T16:09:34;5.13;;;2.47;;
17955;SDS011;27666;51.498;11.966;2023-08-08T16:12:22;3.67;;;2.70;;
17955;SDS011;27666;51.498;11.966;2023-08-08T16:15:08;4.63;;;2.50;;
17955;SDS011;27666;51.498;11.966;2023-08-08T16:17:55;5.35;;;3.05;;
17955;SDS011;27666;51.498;11.966;2023-08-08T16:20:43;5.45;;;4.00;;
17955;SDS011;27666;51.498;11.966;2023-08-08T16:23:30;3.17;;;2.33;;
17955;SDS011;27666;51.498;11.966;2023-08-08T16:26:17;3.38;;;2.40;;
17955;SDS011;27666;51.498;11.966;2023-08-08T16:29:04;3.75;;;2.30;;
17955;SDS011;27666;51.498;11.966;2023-08-08T16:31:52;5.43;;;2.88;;